sensor_id;sensor_type;location;lat;lon;timestamp;temperature;humidity
32706;DHT22;19094;50.972;3.538;2023-05-24T00:01:31;18.30;57.00
32706;DHT22;19094;50.972;3.538;2023-05-24T00:03:57;18.30;56.90
32706;DHT22;19094;50.972;3.538;2023-05-24T00:06:26;18.30;57.20
32706;DHT22;19094;50.972;3.538;2023-05-24T00:08:52;18.30;56.90
32706;DHT22;19094;50.972;3.538;2023-05-24T00:11:19;18.30;57.60
32706;DHT22;19094;50.972;3.538;2023-05-24T00:13:45;18.30;57.00
32706;DHT22;19094;50.972;3.538;2023-05-24T00:16:11;18.20;57.20
32706;DHT22;19094;50.972;3.538;2023-05-24T00:18:36;18.20;57.30
32706;DHT22;19094;50.972;3.538;2023-05-24T00:21:06;18.20;57.30
32706;DHT22;19094;50.972;3.538;2023-05-24T00:23:33;18.20;57.40
32706;DHT22;19094;50.972;3.538;2023-05-24T00:25:58;18.10;57.10
32706;DHT22;19094;50.972;3.538;2023-05-24T00:28:25;18.10;57.60
32706;DHT22;19094;50.972;3.538;2023-05-24T00:30:51;18.10;57.40
32706;DHT22;19094;50.972;3.538;2023-05-24T00:33:17;18.10;57.80
32706;DHT22;19094;50.972;3.538;2023-05-24T00:35:42;18.10;57.60
32706;DHT22;19094;50.972;3.538;2023-05-24T00:38:08;18.00;57.90
32706;DHT22;19094;50.972;3.538;2023-05-24T00:40:33;18.10;57.50
32706;DHT22;19094;50.972;3.538;2023-05-24T00:42:59;18.00;57.50
32706;DHT22;19094;50.972;3.538;2023-05-24T00:45:25;18.10;57.70
32706;DHT22;19094;50.972;3.538;2023-05-24T00:47:51;18.00;57.60
32706;DHT22;19094;50.972;3.538;2023-05-24T00:50:17;18.00;57.40
32706;DHT22;19094;50.972;3.538;2023-05-24T00:52:43;18.00;57.80
32706;DHT22;19094;50.972;3.538;2023-05-24T00:55:09;18.00;57.40
32706;DHT22;19094;50.972;3.538;2023-05-24T00:57:35;18.00;58.30
32706;DHT22;19094;50.972;3.538;2023-05-24T01:00:05;18.00;57.00
32706;DHT22;19094;50.972;3.538;2023-05-24T01:02:32;18.00;57.60
32706;DHT22;19094;50.972;3.538;2023-05-24T01:04:58;18.00;57.20
32706;DHT22;19094;50.972;3.538;2023-05-24T01:12:58;18.00;56.70
32706;DHT22;19094;50.972;3.538;2023-05-24T01:18:12;18.00;57.10
32706;DHT22;19094;50.972;3.538;2023-05-24T01:20:40;18.00;57.50
32706;DHT22;19094;50.972;3.538;2023-05-24T01:26:54;17.90;57.30
32706;DHT22;19094;50.972;3.538;2023-05-24T01:29:04;17.90;56.80
32706;DHT22;19094;50.972;3.538;2023-05-24T01:31:30;17.90;57.30
32706;DHT22;19094;50.972;3.538;2023-05-24T01:33:56;17.90;57.30
32706;DHT22;19094;50.972;3.538;2023-05-24T01:36:21;17.90;57.50
32706;DHT22;19094;50.972;3.538;2023-05-24T01:38:47;17.80;57.30
32706;DHT22;19094;50.972;3.538;2023-05-24T01:41:39;17.90;57.50
32706;DHT22;19094;50.972;3.538;2023-05-24T01:46:35;17.80;57.50
32706;DHT22;19094;50.972;3.538;2023-05-24T01:49:21;17.80;57.60
32706;DHT22;19094;50.972;3.538;2023-05-24T01:52:01;17.80;56.80
32706;DHT22;19094;50.972;3.538;2023-05-24T01:54:34;17.70;57.60
32706;DHT22;19094;50.972;3.538;2023-05-24T01:57:02;17.70;57.70
32706;DHT22;19094;50.972;3.538;2023-05-24T01:59:31;17.70;56.50
32706;DHT22;19094;50.972;3.538;2023-05-24T02:01:57;17.70;57.80
32706;DHT22;19094;50.972;3.538;2023-05-24T02:04:23;17.70;57.70
32706;DHT22;19094;50.972;3.538;2023-05-24T02:06:49;17.70;57.50
32706;DHT22;19094;50.972;3.538;2023-05-24T02:09:15;17.70;57.80
32706;DHT22;19094;50.972;3.538;2023-05-24T02:11:41;17.70;57.60
32706;DHT22;19094;50.972;3.538;2023-05-24T02:14:06;17.70;57.80
32706;DHT22;19094;50.972;3.538;2023-05-24T02:16:32;17.70;57.80
32706;DHT22;19094;50.972;3.538;2023-05-24T02:18:57;17.60;58.10
32706;DHT22;19094;50.972;3.538;2023-05-24T02:21:23;17.60;58.10
32706;DHT22;19094;50.972;3.538;2023-05-24T02:23:50;17.60;58.20
32706;DHT22;19094;50.972;3.538;2023-05-24T02:26:15;17.50;58.10
32706;DHT22;19094;50.972;3.538;2023-05-24T02:28:43;17.50;58.20
32706;DHT22;19094;50.972;3.538;2023-05-24T02:31:09;17.50;58.20
32706;DHT22;19094;50.972;3.538;2023-05-24T02:33:35;17.50;58.30
32706;DHT22;19094;50.972;3.538;2023-05-24T02:36:01;17.50;58.60
32706;DHT22;19094;50.972;3.538;2023-05-24T02:38:27;17.50;59.00
32706;DHT22;19094;50.972;3.538;2023-05-24T02:40:52;17.40;59.20
32706;DHT22;19094;50.972;3.538;2023-05-24T02:43:18;17.40;58.80
32706;DHT22;19094;50.972;3.538;2023-05-24T02:45:43;17.40;58.80
32706;DHT22;19094;50.972;3.538;2023-05-24T02:48:09;17.40;58.70
32706;DHT22;19094;50.972;3.538;2023-05-24T02:50:35;17.40;58.90
32706;DHT22;19094;50.972;3.538;2023-05-24T02:53:01;17.40;58.80
32706;DHT22;19094;50.972;3.538;2023-05-24T02:55:27;17.40;58.90
32706;DHT22;19094;50.972;3.538;2023-05-24T02:57:54;17.40;58.80
32706;DHT22;19094;50.972;3.538;2023-05-24T03:00:19;17.30;58.90
32706;DHT22;19094;50.972;3.538;2023-05-24T03:02:45;17.30;58.90
32706;DHT22;19094;50.972;3.538;2023-05-24T03:05:12;17.30;59.10
32706;DHT22;19094;50.972;3.538;2023-05-24T03:07:38;17.30;59.10
32706;DHT22;19094;50.972;3.538;2023-05-24T03:10:03;17.30;59.70
32706;DHT22;19094;50.972;3.538;2023-05-24T03:12:29;17.30;59.10
32706;DHT22;19094;50.972;3.538;2023-05-24T03:14:55;17.20;59.30
32706;DHT22;19094;50.972;3.538;2023-05-24T03:17:21;17.20;59.30
32706;DHT22;19094;50.972;3.538;2023-05-24T03:19:46;17.20;59.30
32706;DHT22;19094;50.972;3.538;2023-05-24T03:22:12;17.20;59.20
32706;DHT22;19094;50.972;3.538;2023-05-24T03:24:37;17.20;59.10
32706;DHT22;19094;50.972;3.538;2023-05-24T03:27:05;17.20;58.90
32706;DHT22;19094;50.972;3.538;2023-05-24T03:29:31;17.30;59.10
32706;DHT22;19094;50.972;3.538;2023-05-24T03:31:56;17.20;59.10
32706;DHT22;19094;50.972;3.538;2023-05-24T03:34:22;17.20;59.20
32706;DHT22;19094;50.972;3.538;2023-05-24T03:36:48;17.20;59.20
32706;DHT22;19094;50.972;3.538;2023-05-24T03:39:13;17.20;59.30
32706;DHT22;19094;50.972;3.538;2023-05-24T03:41:39;17.20;59.30
32706;DHT22;19094;50.972;3.538;2023-05-24T03:44:04;17.10;59.20
32706;DHT22;19094;50.972;3.538;2023-05-24T03:46:30;17.10;59.20
32706;DHT22;19094;50.972;3.538;2023-05-24T03:48:56;17.10;59.20
32706;DHT22;19094;50.972;3.538;2023-05-24T03:51:21;17.10;59.50
32706;DHT22;19094;50.972;3.538;2023-05-24T03:53:55;17.10;59.40
32706;DHT22;19094;50.972;3.538;2023-05-24T03:56:21;17.10;59.40
32706;DHT22;19094;50.972;3.538;2023-05-24T03:58:47;17.10;59.60
32706;DHT22;19094;50.972;3.538;2023-05-24T04:01:13;17.10;59.40
32706;DHT22;19094;50.972;3.538;2023-05-24T04:03:38;17.10;59.30
32706;DHT22;19094;50.972;3.538;2023-05-24T04:06:05;17.00;59.30
32706;DHT22;19094;50.972;3.538;2023-05-24T04:08:31;17.00;59.30
32706;DHT22;19094;50.972;3.538;2023-05-24T04:10:57;17.00;59.60
32706;DHT22;19094;50.972;3.538;2023-05-24T04:13:22;17.00;59.50
32706;DHT22;19094;50.972;3.538;2023-05-24T04:15:48;17.00;59.60
32706;DHT22;19094;50.972;3.538;2023-05-24T04:18:13;17.00;59.70
32706;DHT22;19094;50.972;3.538;2023-05-24T04:20:39;16.90;59.60
32706;DHT22;19094;50.972;3.538;2023-05-24T04:23:05;17.00;59.50
32706;DHT22;19094;50.972;3.538;2023-05-24T04:25:31;16.90;59.60
32706;DHT22;19094;50.972;3.538;2023-05-24T04:27:57;16.90;59.70
32706;DHT22;19094;50.972;3.538;2023-05-24T04:30:24;16.90;59.60
32706;DHT22;19094;50.972;3.538;2023-05-24T04:32:50;16.90;59.70
32706;DHT22;19094;50.972;3.538;2023-05-24T04:35:16;16.90;59.90
32706;DHT22;19094;50.972;3.538;2023-05-24T04:37:42;16.90;59.80
32706;DHT22;19094;50.972;3.538;2023-05-24T04:40:09;16.90;60.50
32706;DHT22;19094;50.972;3.538;2023-05-24T04:42:35;16.90;59.70
32706;DHT22;19094;50.972;3.538;2023-05-24T04:45:01;16.90;59.60
32706;DHT22;19094;50.972;3.538;2023-05-24T04:47:27;16.90;59.70
32706;DHT22;19094;50.972;3.538;2023-05-24T04:49:52;16.90;59.80
32706;DHT22;19094;50.972;3.538;2023-05-24T04:52:18;16.90;59.60
32706;DHT22;19094;50.972;3.538;2023-05-24T04:54:44;16.90;59.60
32706;DHT22;19094;50.972;3.538;2023-05-24T04:57:10;16.90;59.60
32706;DHT22;19094;50.972;3.538;2023-05-24T04:59:36;16.90;59.70
32706;DHT22;19094;50.972;3.538;2023-05-24T05:02:01;16.90;59.60
32706;DHT22;19094;50.972;3.538;2023-05-24T05:04:27;16.90;59.50
32706;DHT22;19094;50.972;3.538;2023-05-24T05:06:53;16.90;59.60
32706;DHT22;19094;50.972;3.538;2023-05-24T05:09:19;16.90;59.70
32706;DHT22;19094;50.972;3.538;2023-05-24T05:11:45;16.90;59.80
32706;DHT22;19094;50.972;3.538;2023-05-24T05:14:12;16.80;59.80
32706;DHT22;19094;50.972;3.538;2023-05-24T05:16:38;16.90;59.80
32706;DHT22;19094;50.972;3.538;2023-05-24T05:19:04;16.80;59.60
32706;DHT22;19094;50.972;3.538;2023-05-24T05:21:30;16.80;59.60
32706;DHT22;19094;50.972;3.538;2023-05-24T05:23:59;16.80;59.60
32706;DHT22;19094;50.972;3.538;2023-05-24T05:26:28;16.80;59.70
32706;DHT22;19094;50.972;3.538;2023-05-24T05:28:55;16.80;59.70
32706;DHT22;19094;50.972;3.538;2023-05-24T05:31:22;16.90;59.70
32706;DHT22;19094;50.972;3.538;2023-05-24T05:33:48;16.90;59.70
32706;DHT22;19094;50.972;3.538;2023-05-24T05:36:13;16.90;59.60
32706;DHT22;19094;50.972;3.538;2023-05-24T05:38:39;16.90;59.50
32706;DHT22;19094;50.972;3.538;2023-05-24T05:41:05;16.90;59.70
32706;DHT22;19094;50.972;3.538;2023-05-24T05:43:31;16.90;59.70
32706;DHT22;19094;50.972;3.538;2023-05-24T05:45:57;16.90;60.30
32706;DHT22;19094;50.972;3.538;2023-05-24T05:48:22;16.90;59.60
32706;DHT22;19094;50.972;3.538;2023-05-24T05:50:48;16.90;59.60
32706;DHT22;19094;50.972;3.538;2023-05-24T05:53:15;16.90;59.40
32706;DHT22;19094;50.972;3.538;2023-05-24T05:55:41;17.00;59.60
32706;DHT22;19094;50.972;3.538;2023-05-24T05:58:06;17.00;59.60
32706;DHT22;19094;50.972;3.538;2023-05-24T06:00:32;17.00;59.50
32706;DHT22;19094;50.972;3.538;2023-05-24T06:02:59;17.00;59.40
32706;DHT22;19094;50.972;3.538;2023-05-24T06:05:24;17.10;59.50
32706;DHT22;19094;50.972;3.538;2023-05-24T06:07:50;17.10;59.40
32706;DHT22;19094;50.972;3.538;2023-05-24T06:10:16;17.10;59.50
32706;DHT22;19094;50.972;3.538;2023-05-24T06:12:41;17.10;59.40
32706;DHT22;19094;50.972;3.538;2023-05-24T06:15:07;17.10;59.50
32706;DHT22;19094;50.972;3.538;2023-05-24T06:17:35;17.20;59.40
32706;DHT22;19094;50.972;3.538;2023-05-24T06:20:02;17.20;59.30
32706;DHT22;19094;50.972;3.538;2023-05-24T06:22:32;17.20;59.30
32706;DHT22;19094;50.972;3.538;2023-05-24T06:24:58;17.20;59.40
32706;DHT22;19094;50.972;3.538;2023-05-24T06:27:23;17.20;59.30
32706;DHT22;19094;50.972;3.538;2023-05-24T06:29:49;17.20;59.30
32706;DHT22;19094;50.972;3.538;2023-05-24T06:32:15;17.30;59.20
32706;DHT22;19094;50.972;3.538;2023-05-24T06:34:40;17.20;59.30
32706;DHT22;19094;50.972;3.538;2023-05-24T06:37:07;17.30;59.20
32706;DHT22;19094;50.972;3.538;2023-05-24T06:39:35;17.30;59.30
32706;DHT22;19094;50.972;3.538;2023-05-24T06:42:01;17.30;59.20
32706;DHT22;19094;50.972;3.538;2023-05-24T06:44:27;17.30;59.30
32706;DHT22;19094;50.972;3.538;2023-05-24T06:47:01;17.30;59.20
32706;DHT22;19094;50.972;3.538;2023-05-24T06:49:26;17.40;59.20
32706;DHT22;19094;50.972;3.538;2023-05-24T06:51:52;17.40;59.20
32706;DHT22;19094;50.972;3.538;2023-05-24T06:54:18;17.40;59.00
32706;DHT22;19094;50.972;3.538;2023-05-24T06:56:44;17.40;58.90
32706;DHT22;19094;50.972;3.538;2023-05-24T06:59:10;17.40;59.10
32706;DHT22;19094;50.972;3.538;2023-05-24T07:01:36;17.40;59.10
32706;DHT22;19094;50.972;3.538;2023-05-24T07:04:07;17.50;59.00
32706;DHT22;19094;50.972;3.538;2023-05-24T07:06:34;17.50;58.70
32706;DHT22;19094;50.972;3.538;2023-05-24T07:08:59;17.50;58.90
32706;DHT22;19094;50.972;3.538;2023-05-24T07:11:29;17.50;59.00
32706;DHT22;19094;50.972;3.538;2023-05-24T07:13:56;17.50;58.90
32706;DHT22;19094;50.972;3.538;2023-05-24T07:16:21;17.50;58.80
32706;DHT22;19094;50.972;3.538;2023-05-24T07:18:47;17.50;58.90
32706;DHT22;19094;50.972;3.538;2023-05-24T07:21:12;17.50;59.00
32706;DHT22;19094;50.972;3.538;2023-05-24T07:23:38;17.50;58.90
32706;DHT22;19094;50.972;3.538;2023-05-24T07:26:04;17.50;58.90
32706;DHT22;19094;50.972;3.538;2023-05-24T07:28:30;17.60;58.80
32706;DHT22;19094;50.972;3.538;2023-05-24T07:30:56;17.60;59.40
32706;DHT22;19094;50.972;3.538;2023-05-24T07:33:21;17.60;59.50
32706;DHT22;19094;50.972;3.538;2023-05-24T07:35:48;17.70;59.40
32706;DHT22;19094;50.972;3.538;2023-05-24T07:38:19;17.80;59.00
32706;DHT22;19094;50.972;3.538;2023-05-24T07:40:45;17.80;58.60
32706;DHT22;19094;50.972;3.538;2023-05-24T07:43:11;17.90;58.30
32706;DHT22;19094;50.972;3.538;2023-05-24T07:45:37;17.90;58.50
32706;DHT22;19094;50.972;3.538;2023-05-24T07:48:02;17.90;58.30
32706;DHT22;19094;50.972;3.538;2023-05-24T07:50:28;18.00;58.30
32706;DHT22;19094;50.972;3.538;2023-05-24T07:52:55;18.00;58.30
32706;DHT22;19094;50.972;3.538;2023-05-24T07:55:21;18.00;58.80
32706;DHT22;19094;50.972;3.538;2023-05-24T07:57:47;18.00;58.00
32706;DHT22;19094;50.972;3.538;2023-05-24T08:00:13;18.00;58.10
32706;DHT22;19094;50.972;3.538;2023-05-24T08:02:41;18.10;57.80
32706;DHT22;19094;50.972;3.538;2023-05-24T08:05:07;18.00;58.30
32706;DHT22;19094;50.972;3.538;2023-05-24T08:07:35;18.10;58.40
32706;DHT22;19094;50.972;3.538;2023-05-24T08:10:00;18.10;58.20
32706;DHT22;19094;50.972;3.538;2023-05-24T08:12:26;18.30;58.00
32706;DHT22;19094;50.972;3.538;2023-05-24T08:14:55;18.30;57.60
32706;DHT22;19094;50.972;3.538;2023-05-24T08:17:21;18.20;57.90
32706;DHT22;19094;50.972;3.538;2023-05-24T08:19:47;18.30;57.90
32706;DHT22;19094;50.972;3.538;2023-05-24T08:22:13;18.30;57.70
32706;DHT22;19094;50.972;3.538;2023-05-24T08:24:39;18.20;57.70
32706;DHT22;19094;50.972;3.538;2023-05-24T08:27:05;18.10;57.70
32706;DHT22;19094;50.972;3.538;2023-05-24T08:29:32;18.10;57.80
32706;DHT22;19094;50.972;3.538;2023-05-24T08:31:57;18.10;57.80
32706;DHT22;19094;50.972;3.538;2023-05-24T08:34:24;18.20;57.90
32706;DHT22;19094;50.972;3.538;2023-05-24T08:36:49;18.20;57.70
32706;DHT22;19094;50.972;3.538;2023-05-24T08:39:15;18.20;57.40
32706;DHT22;19094;50.972;3.538;2023-05-24T08:41:41;18.20;57.30
32706;DHT22;19094;50.972;3.538;2023-05-24T08:44:07;18.20;57.60
32706;DHT22;19094;50.972;3.538;2023-05-24T08:46:34;18.30;57.30
32706;DHT22;19094;50.972;3.538;2023-05-24T08:49:01;18.40;57.80
32706;DHT22;19094;50.972;3.538;2023-05-24T08:51:32;18.30;58.40
32706;DHT22;19094;50.972;3.538;2023-05-24T08:53:58;18.20;58.40
32706;DHT22;19094;50.972;3.538;2023-05-24T08:56:25;18.20;58.50
32706;DHT22;19094;50.972;3.538;2023-05-24T08:58:52;18.20;58.10
32706;DHT22;19094;50.972;3.538;2023-05-24T09:01:18;18.20;57.90
32706;DHT22;19094;50.972;3.538;2023-05-24T09:03:45;18.30;57.70
32706;DHT22;19094;50.972;3.538;2023-05-24T09:06:12;18.50;57.50
32706;DHT22;19094;50.972;3.538;2023-05-24T09:08:41;18.80;56.90
32706;DHT22;19094;50.972;3.538;2023-05-24T09:11:07;18.80;56.20
32706;DHT22;19094;50.972;3.538;2023-05-24T09:13:34;18.80;56.20
32706;DHT22;19094;50.972;3.538;2023-05-24T09:16:00;18.90;55.30
32706;DHT22;19094;50.972;3.538;2023-05-24T09:18:26;18.80;55.60
32706;DHT22;19094;50.972;3.538;2023-05-24T09:20:52;18.90;54.60
32706;DHT22;19094;50.972;3.538;2023-05-24T09:23:17;19.10;56.00
32706;DHT22;19094;50.972;3.538;2023-05-24T09:25:44;19.00;55.10
32706;DHT22;19094;50.972;3.538;2023-05-24T09:28:16;19.10;55.40
32706;DHT22;19094;50.972;3.538;2023-05-24T09:30:57;19.20;54.30
32706;DHT22;19094;50.972;3.538;2023-05-24T09:33:31;19.20;54.10
32706;DHT22;19094;50.972;3.538;2023-05-24T09:36:02;19.30;54.70
32706;DHT22;19094;50.972;3.538;2023-05-24T09:38:28;19.30;55.60
32706;DHT22;19094;50.972;3.538;2023-05-24T09:41:01;19.10;56.70
32706;DHT22;19094;50.972;3.538;2023-05-24T09:43:28;19.30;56.20
32706;DHT22;19094;50.972;3.538;2023-05-24T09:45:57;19.20;54.20
32706;DHT22;19094;50.972;3.538;2023-05-24T09:48:25;19.20;53.40
32706;DHT22;19094;50.972;3.538;2023-05-24T09:51:17;19.40;52.10
32706;DHT22;19094;50.972;3.538;2023-05-24T09:53:43;19.70;55.20
32706;DHT22;19094;50.972;3.538;2023-05-24T09:56:09;19.80;55.10
32706;DHT22;19094;50.972;3.538;2023-05-24T09:58:35;19.90;54.40
32706;DHT22;19094;50.972;3.538;2023-05-24T10:01:08;20.00;54.50
32706;DHT22;19094;50.972;3.538;2023-05-24T10:03:56;20.10;54.60
32706;DHT22;19094;50.972;3.538;2023-05-24T10:06:23;20.10;53.90
32706;DHT22;19094;50.972;3.538;2023-05-24T10:08:50;20.20;53.50
32706;DHT22;19094;50.972;3.538;2023-05-24T10:11:19;20.30;54.10
32706;DHT22;19094;50.972;3.538;2023-05-24T10:13:47;20.30;51.30
32706;DHT22;19094;50.972;3.538;2023-05-24T10:16:13;20.40;53.60
32706;DHT22;19094;50.972;3.538;2023-05-24T10:18:38;20.50;53.20
32706;DHT22;19094;50.972;3.538;2023-05-24T10:21:05;20.50;53.10
32706;DHT22;19094;50.972;3.538;2023-05-24T10:23:38;20.60;52.70
32706;DHT22;19094;50.972;3.538;2023-05-24T10:26:09;20.60;50.60
32706;DHT22;19094;50.972;3.538;2023-05-24T10:28:46;20.60;49.80
32706;DHT22;19094;50.972;3.538;2023-05-24T10:31:24;20.70;51.30
32706;DHT22;19094;50.972;3.538;2023-05-24T10:33:52;20.70;52.10
32706;DHT22;19094;50.972;3.538;2023-05-24T10:36:21;20.80;52.30
32706;DHT22;19094;50.972;3.538;2023-05-24T10:38:47;20.80;52.40
32706;DHT22;19094;50.972;3.538;2023-05-24T10:41:13;20.90;52.10
32706;DHT22;19094;50.972;3.538;2023-05-24T10:43:39;20.90;51.50
32706;DHT22;19094;50.972;3.538;2023-05-24T10:46:08;20.90;51.70
32706;DHT22;19094;50.972;3.538;2023-05-24T10:48:39;20.90;50.90
32706;DHT22;19094;50.972;3.538;2023-05-24T10:56:43;21.00;51.80
32706;DHT22;19094;50.972;3.538;2023-05-24T10:59:08;21.10;49.00
32706;DHT22;19094;50.972;3.538;2023-05-24T11:01:54;21.10;51.50
32706;DHT22;19094;50.972;3.538;2023-05-24T11:04:20;21.20;51.50
32706;DHT22;19094;50.972;3.538;2023-05-24T11:07:00;21.20;51.50
32706;DHT22;19094;50.972;3.538;2023-05-24T11:09:27;21.20;51.60
32706;DHT22;19094;50.972;3.538;2023-05-24T11:11:57;21.30;51.50
32706;DHT22;19094;50.972;3.538;2023-05-24T11:14:27;21.30;51.20
32706;DHT22;19094;50.972;3.538;2023-05-24T11:16:54;21.40;51.30
32706;DHT22;19094;50.972;3.538;2023-05-24T11:19:45;21.40;50.20
32706;DHT22;19094;50.972;3.538;2023-05-24T11:22:12;21.50;50.10
32706;DHT22;19094;50.972;3.538;2023-05-24T11:24:40;21.50;50.50
32706;DHT22;19094;50.972;3.538;2023-05-24T11:27:06;21.50;48.80
32706;DHT22;19094;50.972;3.538;2023-05-24T11:29:39;21.60;49.00
32706;DHT22;19094;50.972;3.538;2023-05-24T11:32:05;21.60;48.90
32706;DHT22;19094;50.972;3.538;2023-05-24T11:34:32;21.60;49.00
32706;DHT22;19094;50.972;3.538;2023-05-24T11:36:59;21.70;50.70
32706;DHT22;19094;50.972;3.538;2023-05-24T11:39:30;21.70;50.50
32706;DHT22;19094;50.972;3.538;2023-05-24T11:41:56;21.60;47.60
32706;DHT22;19094;50.972;3.538;2023-05-24T11:44:22;21.70;49.60
32706;DHT22;19094;50.972;3.538;2023-05-24T11:46:47;21.80;49.70
32706;DHT22;19094;50.972;3.538;2023-05-24T11:49:15;21.90;51.00
32706;DHT22;19094;50.972;3.538;2023-05-24T11:51:41;22.00;50.50
32706;DHT22;19094;50.972;3.538;2023-05-24T11:54:07;22.00;48.20
32706;DHT22;19094;50.972;3.538;2023-05-24T11:56:33;22.10;48.10
32706;DHT22;19094;50.972;3.538;2023-05-24T12:01:32;22.10;50.60
32706;DHT22;19094;50.972;3.538;2023-05-24T12:03:58;22.10;50.70
32706;DHT22;19094;50.972;3.538;2023-05-24T12:06:33;22.10;50.80
32706;DHT22;19094;50.972;3.538;2023-05-24T12:09:00;22.10;50.80
32706;DHT22;19094;50.972;3.538;2023-05-24T12:11:26;22.20;48.60
32706;DHT22;19094;50.972;3.538;2023-05-24T12:13:53;22.30;47.10
32706;DHT22;19094;50.972;3.538;2023-05-24T12:16:18;22.30;50.40
32706;DHT22;19094;50.972;3.538;2023-05-24T12:18:44;22.20;50.60
32706;DHT22;19094;50.972;3.538;2023-05-24T12:21:10;22.10;50.70
32706;DHT22;19094;50.972;3.538;2023-05-24T12:23:36;22.20;50.60
32706;DHT22;19094;50.972;3.538;2023-05-24T12:26:03;22.20;49.90
32706;DHT22;19094;50.972;3.538;2023-05-24T12:28:36;22.30;48.20
32706;DHT22;19094;50.972;3.538;2023-05-24T12:31:03;22.40;50.00
32706;DHT22;19094;50.972;3.538;2023-05-24T12:33:30;22.40;50.10
32706;DHT22;19094;50.972;3.538;2023-05-24T12:35:56;22.50;47.60
32706;DHT22;19094;50.972;3.538;2023-05-24T12:38:24;22.70;49.30
32706;DHT22;19094;50.972;3.538;2023-05-24T12:40:51;22.80;48.90
32706;DHT22;19094;50.972;3.538;2023-05-24T12:43:19;22.90;48.30
32706;DHT22;19094;50.972;3.538;2023-05-24T12:45:45;23.00;48.00
32706;DHT22;19094;50.972;3.538;2023-05-24T12:48:11;23.10;45.30
32706;DHT22;19094;50.972;3.538;2023-05-24T12:50:37;23.20;46.50
32706;DHT22;19094;50.972;3.538;2023-05-24T12:53:04;23.30;44.50
32706;DHT22;19094;50.972;3.538;2023-05-24T12:55:30;23.40;47.20
32706;DHT22;19094;50.972;3.538;2023-05-24T12:57:56;23.30;47.80
32706;DHT22;19094;50.972;3.538;2023-05-24T13:00:23;23.10;48.00
32706;DHT22;19094;50.972;3.538;2023-05-24T13:02:52;23.10;46.30
32706;DHT22;19094;50.972;3.538;2023-05-24T13:05:20;23.10;48.10
32706;DHT22;19094;50.972;3.538;2023-05-24T13:07:49;23.00;48.20
32706;DHT22;19094;50.972;3.538;2023-05-24T13:10:15;23.10;48.30
32706;DHT22;19094;50.972;3.538;2023-05-24T13:12:40;23.20;46.10
32706;DHT22;19094;50.972;3.538;2023-05-24T13:15:07;23.40;46.70
32706;DHT22;19094;50.972;3.538;2023-05-24T13:17:33;23.40;47.00
32706;DHT22;19094;50.972;3.538;2023-05-24T13:20:01;23.30;47.20
32706;DHT22;19094;50.972;3.538;2023-05-24T13:22:30;23.60;45.00
32706;DHT22;19094;50.972;3.538;2023-05-24T13:24:56;23.60;46.50
32706;DHT22;19094;50.972;3.538;2023-05-24T13:27:21;23.50;46.80
32706;DHT22;19094;50.972;3.538;2023-05-24T13:29:47;23.50;46.40
32706;DHT22;19094;50.972;3.538;2023-05-24T13:32:13;23.60;45.30
32706;DHT22;19094;50.972;3.538;2023-05-24T13:34:39;23.70;43.40
32706;DHT22;19094;50.972;3.538;2023-05-24T13:37:05;23.90;45.40
32706;DHT22;19094;50.972;3.538;2023-05-24T13:39:32;23.90;45.60
32706;DHT22;19094;50.972;3.538;2023-05-24T13:42:00;23.90;45.70
32706;DHT22;19094;50.972;3.538;2023-05-24T13:44:26;23.60;42.10
32706;DHT22;19094;50.972;3.538;2023-05-24T13:46:52;23.70;45.10
32706;DHT22;19094;50.972;3.538;2023-05-24T13:49:18;24.10;43.70
32706;DHT22;19094;50.972;3.538;2023-05-24T13:51:44;24.30;43.80
32706;DHT22;19094;50.972;3.538;2023-05-24T13:54:11;24.40;42.80
32706;DHT22;19094;50.972;3.538;2023-05-24T13:56:37;24.50;43.30
32706;DHT22;19094;50.972;3.538;2023-05-24T13:59:05;24.60;44.00
32706;DHT22;19094;50.972;3.538;2023-05-24T14:01:32;24.50;44.50
32706;DHT22;19094;50.972;3.538;2023-05-24T14:04:00;24.30;45.10
32706;DHT22;19094;50.972;3.538;2023-05-24T14:06:26;24.20;45.50
32706;DHT22;19094;50.972;3.538;2023-05-24T14:08:52;24.10;45.80
32706;DHT22;19094;50.972;3.538;2023-05-24T14:11:18;24.00;44.10
32706;DHT22;19094;50.972;3.538;2023-05-24T14:13:44;24.00;45.90
32706;DHT22;19094;50.972;3.538;2023-05-24T14:16:10;24.00;45.50
32706;DHT22;19094;50.972;3.538;2023-05-24T14:18:36;24.00;46.20
32706;DHT22;19094;50.972;3.538;2023-05-24T14:21:02;23.90;46.30
32706;DHT22;19094;50.972;3.538;2023-05-24T14:23:28;23.90;45.70
32706;DHT22;19094;50.972;3.538;2023-05-24T14:25:58;24.00;46.30
32706;DHT22;19094;50.972;3.538;2023-05-24T14:28:23;24.00;46.60
32706;DHT22;19094;50.972;3.538;2023-05-24T14:30:49;24.00;46.50
32706;DHT22;19094;50.972;3.538;2023-05-24T14:33:15;24.00;46.60
32706;DHT22;19094;50.972;3.538;2023-05-24T14:35:41;24.10;45.60
32706;DHT22;19094;50.972;3.538;2023-05-24T14:38:08;24.30;44.40
32706;DHT22;19094;50.972;3.538;2023-05-24T14:40:34;24.30;45.80
32706;DHT22;19094;50.972;3.538;2023-05-24T14:43:02;24.30;45.10
32706;DHT22;19094;50.972;3.538;2023-05-24T14:45:28;24.40;44.40
32706;DHT22;19094;50.972;3.538;2023-05-24T14:47:54;24.50;45.30
32706;DHT22;19094;50.972;3.538;2023-05-24T14:50:20;24.60;45.20
32706;DHT22;19094;50.972;3.538;2023-05-24T14:52:46;24.50;45.30
32706;DHT22;19094;50.972;3.538;2023-05-24T14:55:11;24.50;44.30
32706;DHT22;19094;50.972;3.538;2023-05-24T14:57:38;24.60;44.40
32706;DHT22;19094;50.972;3.538;2023-05-24T15:00:05;24.60;45.00
32706;DHT22;19094;50.972;3.538;2023-05-24T15:02:31;24.50;44.40
32706;DHT22;19094;50.972;3.538;2023-05-24T15:04:58;24.50;45.10
32706;DHT22;19094;50.972;3.538;2023-05-24T15:07:24;24.50;45.10
32706;DHT22;19094;50.972;3.538;2023-05-24T15:09:50;24.50;44.60
32706;DHT22;19094;50.972;3.538;2023-05-24T15:12:16;24.60;42.30
32706;DHT22;19094;50.972;3.538;2023-05-24T15:14:42;24.60;43.50
32706;DHT22;19094;50.972;3.538;2023-05-24T15:17:09;24.50;44.20
32706;DHT22;19094;50.972;3.538;2023-05-24T15:19:34;24.50;45.00
32706;DHT22;19094;50.972;3.538;2023-05-24T15:22:00;24.30;44.90
32706;DHT22;19094;50.972;3.538;2023-05-24T15:24:26;24.30;44.70
32706;DHT22;19094;50.972;3.538;2023-05-24T15:26:51;24.30;44.60
32706;DHT22;19094;50.972;3.538;2023-05-24T15:29:18;24.20;46.00
32706;DHT22;19094;50.972;3.538;2023-05-24T15:31:43;24.00;46.30
32706;DHT22;19094;50.972;3.538;2023-05-24T15:34:09;23.90;46.80
32706;DHT22;19094;50.972;3.538;2023-05-24T15:36:35;23.70;46.90
32706;DHT22;19094;50.972;3.538;2023-05-24T15:39:01;23.70;46.80
32706;DHT22;19094;50.972;3.538;2023-05-24T15:41:26;23.60;47.40
32706;DHT22;19094;50.972;3.538;2023-05-24T15:43:52;23.50;47.60
32706;DHT22;19094;50.972;3.538;2023-05-24T15:46:21;23.50;46.80
32706;DHT22;19094;50.972;3.538;2023-05-24T15:48:47;23.40;47.60
32706;DHT22;19094;50.972;3.538;2023-05-24T15:51:12;23.40;47.40